Time;durP1;ratioP1;P1;durP2;ratioP2;P2;SDS_P1;SDS_P2;PMS_P1;PMS_P2;Temp;Humidity;BMP_temperature;BMP_pressure;BME280_temperature;BME280_humidity;BME280_pressure;Samples;Min_cycle;Max_cycle;Signal;HPM_P1;HPM_P2
2021/08/10 00:00:47;;;;;;;6.35;3.85;;;31.30;43.00;;;;;;4375382;32;20532;-38
2021/08/10 00:03:13;;;;;;;13.77;4.07;;;31.20;43.20;;;;;;4360198;32;20592;-38
2021/08/10 00:05:40;;;;;;;6.78;4.03;;;31.10;43.30;;;;;;4360177;32;20062;-38
2021/08/10 00:08:06;;;;;;;13.00;4.53;;;31.10;43.60;;;;;;4360245;32;20120;-39
2021/08/10 00:10:32;;;;;;;10.43;3.78;;;31.10;43.60;;;;;;4360044;32;20077;-38
2021/08/10 00:12:59;;;;;;;4.43;3.58;;;31.10;43.50;;;;;;4359710;32;20443;-37
2021/08/10 00:15:25;;;;;;;8.60;4.12;;;31.10;43.50;;;;;;4360256;32;20061;-38
2021/08/10 00:17:51;;;;;;;14.05;4.00;;;31.10;43.40;;;;;;4359938;32;20062;-38
2021/08/10 00:20:20;;;;;;;6.45;3.50;;;31.20;43.50;;;;;;4346291;32;20063;-38
2021/08/10 00:22:46;;;;;;;5.97;3.70;;;31.20;43.60;;;;;;4359518;32;20501;-38
2021/08/10 00:25:13;;;;;;;4.37;3.97;;;31.20;44.10;;;;;;4359996;32;20605;-38
2021/08/10 00:27:39;;;;;;;8.05;4.12;;;31.10;43.30;;;;;;4359956;32;20061;-38
2021/08/10 00:30:06;;;;;;;6.62;3.50;;;31.20;42.80;;;;;;4346128;32;20059;-38
2021/08/10 00:32:33;;;;;;;11.00;3.67;;;31.10;41.70;;;;;;4359758;32;20135;-38
2021/08/10 00:34:59;;;;;;;3.55;3.00;;;31.10;41.60;;;;;;4359719;32;20084;-38
2021/08/10 00:37:25;;;;;;;12.40;4.62;;;31.10;41.20;;;;;;4359928;32;20058;-38
2021/08/10 00:39:52;;;;;;;8.13;3.17;;;31.10;41.30;;;;;;4360051;32;20552;-37
2021/08/10 00:42:18;;;;;;;8.00;3.83;;;31.20;41.40;;;;;;4345915;32;20138;-38
2021/08/10 00:44:44;;;;;;;5.87;3.75;;;31.20;41.90;;;;;;4359573;32;20112;-37
2021/08/10 00:47:11;;;;;;;6.90;3.92;;;31.30;41.80;;;;;;4359710;32;20074;-37
2021/08/10 00:49:37;;;;;;;7.72;4.07;;;31.40;41.40;;;;;;4360041;32;20136;-37
2021/08/10 00:52:04;;;;;;;3.62;3.30;;;31.50;41.30;;;;;;4359605;32;20574;-38
2021/08/10 00:54:30;;;;;;;4.78;3.70;;;31.50;41.20;;;;;;4345854;32;20094;-38
2021/08/10 00:56:57;;;;;;;11.23;4.12;;;31.60;41.30;;;;;;4345801;32;20171;-38
2021/08/10 00:59:23;;;;;;;4.32;3.85;;;31.70;41.40;;;;;;4359445;32;20082;-39
2021/08/10 01:01:50;;;;;;;7.85;3.83;;;31.70;41.30;;;;;;4352530;32;20082;-37
2021/08/10 01:04:16;;;;;;;5.65;3.80;;;31.70;41.80;;;;;;4374634;32;20085;-38
2021/08/10 01:07:13;;;;;;;6.18;3.28;;;31.70;40.90;;;;;;4373868;32;20061;-38
2021/08/10 01:09:57;;;;;;;4.57;3.15;;;31.70;40.80;;;;;;4374223;32;20055;-38
2021/08/10 01:12:48;;;;;;;7.10;3.97;;;31.70;40.90;;;;;;4360070;32;20051;-38
2021/08/10 01:15:16;;;;;;;9.60;3.70;;;31.60;41.30;;;;;;4374413;32;20156;-38
2021/08/10 01:18:21;;;;;;;4.05;3.55;;;31.40;41.20;;;;;;4360135;32;20093;-38
2021/08/10 01:21:09;;;;;;;4.18;3.42;;;31.40;41.60;;;;;;4328354;32;20108;-39
2021/08/10 01:23:35;;;;;;;6.28;3.62;;;31.30;41.90;;;;;;4374199;32;20472;-37
2021/08/10 01:26:26;;;;;;;4.40;4.00;;;31.30;42.00;;;;;;4360614;32;20191;-38
2021/08/10 01:29:00;;;;;;;8.88;4.22;;;31.30;41.90;;;;;;4338564;32;20055;-38
2021/08/10 01:31:34;;;;;;;5.72;3.50;;;31.40;41.90;;;;;;4373956;32;21138;-38
2021/08/10 01:34:37;;;;;;;10.48;4.60;;;31.40;41.80;;;;;;4373695;32;20109;-38
2021/08/10 01:37:07;;;;;;;8.60;3.95;;;31.40;41.90;;;;;;4350315;32;20058;-37
2021/08/10 01:39:35;;;;;;;6.45;4.35;;;31.50;41.80;;;;;;4360726;32;20525;-38
2021/08/10 01:42:02;;;;;;;7.43;4.62;;;31.50;41.60;;;;;;4359948;32;20061;-38
2021/08/10 01:44:29;;;;;;;9.63;4.47;;;31.50;41.60;;;;;;4373789;32;20565;-38
2021/08/10 01:46:56;;;;;;;9.90;3.92;;;31.50;41.40;;;;;;4360235;32;20053;-37
2021/08/10 01:49:25;;;;;;;7.47;3.97;;;31.50;41.60;;;;;;4347468;32;20058;-38
2021/08/10 01:51:57;;;;;;;4.40;4.00;;;31.50;41.60;;;;;;4347476;32;20058;-38
2021/08/10 01:54:24;;;;;;;9.43;4.72;;;31.50;41.50;;;;;;4359841;32;20151;-38
2021/08/10 01:56:50;;;;;;;8.40;4.00;;;31.50;41.40;;;;;;4359769;32;20458;-39
2021/08/10 01:59:18;;;;;;;8.85;3.97;;;31.50;41.20;;;;;;4359955;32;20180;-38
2021/08/10 02:01:44;;;;;;;10.25;3.97;;;31.60;41.20;;;;;;4353712;32;20125;-38
2021/08/10 02:04:11;;;;;;;9.07;5.70;;;31.60;41.30;;;;;;4345078;32;20097;-38
2021/08/10 02:06:38;;;;;;;12.13;5.28;;;31.60;41.30;;;;;;4345054;32;20455;-38
2021/08/10 02:09:04;;;;;;;5.75;4.00;;;31.60;41.30;;;;;;4358865;32;20059;-37
2021/08/10 02:11:31;;;;;;;8.57;4.00;;;31.60;41.30;;;;;;4311589;33;20080;-38
2021/08/10 02:13:58;;;;;;;6.03;4.10;;;31.60;41.20;;;;;;4299403;33;20084;-37
2021/08/10 02:16:25;;;;;;;8.23;3.80;;;31.60;41.10;;;;;;4299939;33;20077;-37
2021/08/10 02:18:52;;;;;;;4.97;3.92;;;31.70;41.10;;;;;;4299661;33;20120;-37
2021/08/10 02:21:27;;;;;;;7.90;3.70;;;31.80;41.20;;;;;;4299816;33;20055;-38
2021/08/10 02:24:07;;;;;;;8.80;4.03;;;31.90;41.80;;;;;;4311462;33;20166;-39
2021/08/10 02:26:38;;;;;;;15.90;7.28;;;31.90;40.90;;;;;;4299627;33;20146;-39
2021/08/10 02:29:05;;;;;;;17.23;6.43;;;32.00;40.90;;;;;;4288170;33;20095;-38
2021/08/10 02:31:31;;;;;;;13.98;5.78;;;32.00;40.70;;;;;;4287529;33;20610;-37
2021/08/10 02:33:58;;;;;;;11.63;4.50;;;32.10;40.80;;;;;;4287668;33;20068;-37
2021/08/10 02:36:24;;;;;;;10.73;4.62;;;32.20;40.80;;;;;;4311453;33;20078;-38
2021/08/10 02:38:50;;;;;;;9.15;4.40;;;32.30;40.70;;;;;;4299347;33;20067;-37
2021/08/10 02:41:17;;;;;;;9.63;4.37;;;32.30;40.40;;;;;;4287579;33;20102;-38
2021/08/10 02:43:43;;;;;;;13.15;4.78;;;32.40;40.40;;;;;;4344076;32;20193;-38
2021/08/10 02:46:10;;;;;;;11.57;6.60;;;32.50;40.30;;;;;;4344513;32;20072;-38
2021/08/10 02:48:36;;;;;;;12.48;4.30;;;32.50;40.30;;;;;;4332062;32;20085;-37
2021/08/10 02:51:03;;;;;;;10.13;4.57;;;32.60;40.40;;;;;;4358227;32;20055;-38
2021/08/10 02:53:29;;;;;;;10.20;3.62;;;32.60;40.00;;;;;;4357669;32;20078;-39
2021/08/10 02:56:06;;;;;;;9.50;4.45;;;32.70;40.10;;;;;;4358251;32;20082;-39
2021/08/10 02:58:32;;;;;;;9.48;5.28;;;32.80;40.20;;;;;;4332342;32;20609;-37
2021/08/10 03:01:02;;;;;;;7.53;4.32;;;32.80;39.90;;;;;;4344204;32;20062;-37
2021/08/10 03:03:31;;;;;;;10.98;4.78;;;32.90;39.60;;;;;;4332217;32;20064;-37
2021/08/10 03:06:00;;;;;;;8.55;4.80;;;33.00;39.40;;;;;;4344338;32;20150;-37
2021/08/10 03:08:36;;;;;;;7.12;3.50;;;33.10;39.30;;;;;;4331794;32;20611;-37
2021/08/10 03:11:03;;;;;;;8.10;4.28;;;33.10;38.80;;;;;;4357956;32;20097;-38
2021/08/10 03:13:38;;;;;;;7.95;3.83;;;33.20;38.50;;;;;;4315771;33;20121;-38
2021/08/10 03:16:07;;;;;;;;;;;33.20;38.60;;;;;;4328972;33;20083;-39
2021/08/10 03:18:37;;;;;;;;;;;33.10;38.10;;;;;;4328582;33;19994;-40
2021/08/10 03:21:04;;;;;;;;;;;33.20;38.00;;;;;;4329134;33;19982;-38
2021/08/10 03:23:33;;;;;;;;;;;33.10;37.60;;;;;;4328740;33;20505;-38
2021/08/10 03:25:59;;;;;;;;;;;33.10;37.40;;;;;;4328715;33;19998;-38
2021/08/10 03:28:26;;;;;;;;;;;33.10;37.20;;;;;;4328469;33;19966;-38
2021/08/10 03:30:54;;;;;;;;;;;33.00;37.00;;;;;;4342528;33;19954;-37
2021/08/10 03:33:23;;;;;;;;;;;33.00;37.10;;;;;;4319328;33;19988;-38
2021/08/10 03:35:49;;;;;;;;;;;33.00;37.00;;;;;;4331455;33;19977;-38
2021/08/10 03:38:15;;;;;;;;;;;33.00;37.10;;;;;;4343645;33;19958;-37
2021/08/10 03:40:41;;;;;;;;;;;33.00;37.10;;;;;;4331649;33;19954;-38
2021/08/10 03:43:08;;;;;;;;;;;33.10;37.20;;;;;;4331085;33;19955;-38
2021/08/10 03:45:34;;;;;;;;;;;33.10;37.20;;;;;;4346385;32;19961;-37
2021/08/10 03:48:01;;;;;;;;;;;33.20;37.10;;;;;;4360828;32;19957;-37
2021/08/10 03:50:27;;;;;;;;;;;33.30;37.00;;;;;;4334781;32;19953;-37
2021/08/10 03:52:55;;;;;;;;;;;33.30;37.00;;;;;;4334414;32;20062;-38
2021/08/10 03:55:22;;;;;;;;;;;33.40;36.90;;;;;;4346793;32;19961;-38
2021/08/10 03:57:48;;;;;;;;;;;33.50;36.70;;;;;;4360941;32;20029;-38
2021/08/10 04:00:15;;;;;;;;;;;33.60;36.50;;;;;;4347028;32;19965;-38
2021/08/10 04:02:41;;;;;;;;;;;33.80;36.40;;;;;;4358988;32;19977;-38
2021/08/10 04:05:12;;;;;;;;;;;33.90;36.10;;;;;;4375823;32;20043;-38
2021/08/10 04:07:41;;;;;;;;;;;34.00;35.80;;;;;;4349689;32;20021;-37
2021/08/10 04:10:08;;;;;;;;;;;34.10;35.50;;;;;;4375428;32;20049;-38
2021/08/10 04:12:34;;;;;;;;;;;34.30;35.30;;;;;;4375561;32;19957;-37
2021/08/10 04:15:01;;;;;;;;;;;34.40;34.60;;;;;;4361502;32;19957;-37
2021/08/10 04:17:27;;;;;;;;;;;34.40;34.40;;;;;;4375145;32;19997;-38
2021/08/10 04:19:56;;;;;;;;;;;34.60;34.60;;;;;;4375129;32;19985;-39
2021/08/10 04:22:22;;;;;;;;;;;34.60;34.40;;;;;;4375032;32;20507;-39
2021/08/10 04:24:49;;;;;;;;;;;34.70;34.50;;;;;;4375362;32;19973;-38
2021/08/10 04:27:16;;;;;;;;;;;34.80;34.50;;;;;;4375484;32;20034;-38
2021/08/10 04:29:42;;;;;;;;;;;34.70;34.00;;;;;;4375179;32;19960;-38
2021/08/10 04:32:08;;;;;;;;;;;34.80;34.20;;;;;;4375516;32;20452;-39
2021/08/10 04:34:35;;;;;;;;;;;34.80;33.90;;;;;;4361358;32;20033;-39
2021/08/10 04:37:04;;;;;;;;;;;34.80;33.80;;;;;;4375349;32;20052;-38
2021/08/10 04:39:31;;;;;;;;;;;34.80;33.90;;;;;;4361956;32;19968;-38
2021/08/10 04:41:57;;;;;;;;;;;34.80;33.40;;;;;;4375453;32;19972;-39
2021/08/10 04:44:23;;;;;;;;;;;34.90;33.60;;;;;;4361208;32;19957;-37
2021/08/10 04:46:49;;;;;;;;;;;34.90;33.50;;;;;;4375286;32;19964;-38
2021/08/10 04:49:16;;;;;;;;;;;35.00;33.50;;;;;;4374628;32;20426;-38
2021/08/10 04:51:42;;;;;;;;;;;35.10;33.30;;;;;;4360804;32;19964;-38
2021/08/10 04:54:10;;;;;;;;;;;35.20;33.30;;;;;;4375126;32;19997;-38
2021/08/10 04:56:37;;;;;;;;;;;35.30;33.40;;;;;;4360702;32;20497;-38
2021/08/10 04:59:03;;;;;;;;;;;35.40;33.10;;;;;;4361189;32;20053;-38
2021/08/10 05:01:29;;;;;;;;;;;35.40;32.90;;;;;;4369687;32;19997;-37
2021/08/10 05:03:55;;;;;;;;;;;35.50;32.90;;;;;;4360081;32;20055;-37
2021/08/10 05:06:21;;;;;;;;;;;35.70;32.90;;;;;;4359897;32;19956;-39
2021/08/10 05:08:48;;;;;;;;;;;35.80;32.70;;;;;;4360208;32;20022;-38
2021/08/10 05:11:14;;;;;;;;;;;35.90;32.40;;;;;;4359750;32;20443;-38
2021/08/10 05:13:40;;;;;;;;;;;36.00;32.50;;;;;;4359030;32;20006;-39
2021/08/10 05:16:06;;;;;;;;;;;36.10;32.40;;;;;;4333792;32;19961;-38
2021/08/10 05:18:32;;;;;;;;;;;36.20;32.20;;;;;;4359474;32;19962;-38
2021/08/10 05:20:59;;;;;;;;;;;36.30;32.20;;;;;;4345713;32;20394;-38
2021/08/10 05:23:26;;;;;;;;;;;36.50;32.10;;;;;;4359501;32;20464;-38
2021/08/10 05:25:52;;;;;;;;;;;36.80;31.80;;;;;;4359439;32;19965;-38
2021/08/10 05:28:18;;;;;;;;;;;36.90;31.40;;;;;;4345867;32;19973;-38
2021/08/10 05:30:45;;;;;;;;;;;37.10;30.90;;;;;;4359163;32;20000;-39
2021/08/10 05:33:11;;;;;;;;;;;37.30;30.80;;;;;;4359000;32;19984;-38
2021/08/10 05:35:38;;;;;;;;;;;37.30;30.00;;;;;;4358960;32;20061;-37
2021/08/10 05:38:05;;;;;;;;;;;37.30;30.00;;;;;;4345456;32;19960;-38
2021/08/10 05:40:31;;;;;;;;;;;37.30;30.00;;;;;;4345039;32;19977;-38
2021/08/10 05:42:57;;;;;;;;;;;37.30;30.00;;;;;;4359409;32;19958;-37
2021/08/10 05:45:23;;;;;;;;;;;37.50;29.80;;;;;;4359373;32;20055;-37
2021/08/10 05:47:49;;;;;;;;;;;37.50;29.30;;;;;;4359039;32;19961;-38
2021/08/10 05:50:16;;;;;;;;;;;37.40;29.40;;;;;;4358993;32;20373;-38
2021/08/10 05:52:42;;;;;;;;;;;37.30;29.40;;;;;;4358720;32;20096;-38
2021/08/10 05:55:09;;;;;;;;;;;37.20;29.30;;;;;;4358807;32;20481;-38
2021/08/10 05:57:35;;;;;;;;;;;37.20;29.30;;;;;;4345098;32;19954;-37
2021/08/10 06:00:02;;;;;;;;;;;37.20;29.50;;;;;;4359214;32;19973;-37
2021/08/10 06:02:29;;;;;;;;;;;37.20;29.50;;;;;;4355688;32;19954;-38
2021/08/10 06:04:55;;;;;;;;;;;37.40;29.60;;;;;;4374238;32;19949;-39
2021/08/10 06:07:21;;;;;;;;;;;37.60;29.20;;;;;;4373772;32;19966;-38
2021/08/10 06:09:47;;;;;;;;;;;37.70;29.20;;;;;;4373768;32;20039;-39
2021/08/10 06:12:13;;;;;;;;;;;37.70;29.00;;;;;;4373419;32;19980;-38
2021/08/10 06:14:39;;;;;;;;;;;37.70;29.10;;;;;;4373690;32;20529;-37
2021/08/10 06:17:06;;;;;;;;;;;37.60;29.20;;;;;;4373643;32;19957;-38
2021/08/10 06:19:32;;;;;;;;;;;37.50;29.30;;;;;;4373413;32;20353;-38
2021/08/10 06:21:59;;;;;;;;;;;37.50;29.40;;;;;;4373649;32;19980;-38
2021/08/10 06:24:27;;;;;;;;;;;37.40;29.50;;;;;;4373525;32;19957;-38
2021/08/10 06:26:54;;;;;;;;;;;37.30;29.60;;;;;;4373486;32;20033;-39
2021/08/10 06:29:20;;;;;;;;;;;37.20;29.60;;;;;;4373593;32;19960;-38
2021/08/10 06:31:46;;;;;;;;;;;37.10;29.70;;;;;;4373659;32;19958;-38
2021/08/10 06:34:13;;;;;;;;;;;37.00;29.80;;;;;;4373235;32;19953;-38
2021/08/10 06:36:42;;;;;;;;;;;36.80;29.90;;;;;;4373151;32;19949;-37
2021/08/10 06:39:08;;;;;;;;;;;36.70;30.00;;;;;;4373488;32;20438;-39
2021/08/10 06:41:34;;;;;;;;;;;36.60;30.00;;;;;;4373818;32;19972;-38
2021/08/10 06:44:00;;;;;;;;;;;36.50;30.20;;;;;;4373505;32;19954;-39
2021/08/10 06:46:29;;;;;;;;;;;36.30;30.20;;;;;;4373157;32;20003;-38
2021/08/10 06:48:55;;;;;;;;;;;36.20;30.30;;;;;;4373599;32;19962;-37
2021/08/10 06:51:21;;;;;;;;;;;36.20;30.50;;;;;;4373094;32;19965;-37
2021/08/10 06:53:47;;;;;;;;;;;36.20;30.70;;;;;;4373294;32;20065;-39
2021/08/10 06:56:14;;;;;;;;;;;36.10;30.80;;;;;;4373546;32;19957;-39
2021/08/10 06:58:40;;;;;;;;;;;35.90;30.80;;;;;;4373179;32;19956;-38
2021/08/10 07:01:06;;;;;;;;;;;35.90;31.00;;;;;;4370820;32;20426;-38
2021/08/10 07:03:32;;;;;;;;;;;35.90;31.00;;;;;;4358059;32;20050;-38
2021/08/10 07:05:59;;;;;;;;;;;35.90;31.10;;;;;;4360316;32;20370;-38
2021/08/10 07:08:25;;;;;;;;;;;35.90;31.20;;;;;;4361674;32;19984;-38
2021/08/10 07:10:51;;;;;;;;;;;35.80;31.20;;;;;;4361159;32;20425;-37
2021/08/10 07:13:17;;;;;;;;;;;35.70;31.20;;;;;;4361165;32;19993;-38
2021/08/10 07:15:43;;;;;;;;;;;35.70;31.40;;;;;;4361157;32;20022;-37
2021/08/10 07:18:10;;;;;;;;;;;35.70;31.40;;;;;;4360994;32;19950;-38
2021/08/10 07:20:36;;;;;;;;;;;35.70;31.40;;;;;;4361163;32;19966;-38
2021/08/10 07:23:02;;;;;;;;;;;35.80;31.60;;;;;;4360878;32;19981;-37
2021/08/10 07:25:28;;;;;;;;;;;35.80;31.60;;;;;;4360778;32;19950;-37
2021/08/10 07:27:55;;;;;;;;;;;35.90;31.70;;;;;;4347406;32;19962;-39
2021/08/10 07:30:21;;;;;;;;;;;35.90;31.60;;;;;;4360828;32;20033;-38
2021/08/10 07:32:47;;;;;;;;;;;35.90;31.60;;;;;;4361228;32;19962;-38
2021/08/10 07:35:13;;;;;;;;;;;36.00;31.60;;;;;;4360730;32;20405;-38
2021/08/10 07:37:43;;;;;;;;;;;36.10;31.60;;;;;;4360846;32;19973;-37
2021/08/10 07:40:11;;;;;;;;;;;36.20;31.20;;;;;;4360647;32;20356;-39
2021/08/10 07:42:37;;;;;;;;;;;36.40;31.10;;;;;;4328695;33;20002;-38
2021/08/10 07:45:04;;;;;;;;;;;36.50;31.00;;;;;;4328435;33;19962;-38
2021/08/10 07:47:31;;;;;;;;;;;36.70;30.70;;;;;;4316630;33;19966;-39
2021/08/10 07:49:57;;;;;;;;;;;36.80;30.60;;;;;;4316792;33;19966;-37
2021/08/10 07:52:23;;;;;;;;;;;37.00;30.30;;;;;;4328724;33;20045;-39
2021/08/10 07:54:49;;;;;;;;;;;37.10;30.10;;;;;;4328786;33;19996;-38
2021/08/10 07:57:15;;;;;;;;;;;37.30;30.00;;;;;;4328627;33;20421;-38
2021/08/10 07:59:42;;;;;;;;;;;37.40;30.00;;;;;;4328490;33;19969;-39
2021/08/10 08:02:08;;;;;;;;;;;37.60;30.00;;;;;;4328469;33;19971;-37
2021/08/10 08:04:35;;;;;;;;;;;37.80;29.90;;;;;;4328408;33;19961;-38
2021/08/10 08:07:02;;;;;;;;;;;38.10;29.70;;;;;;4328940;33;19974;-38
2021/08/10 08:09:28;;;;;;;;;;;38.30;29.20;;;;;;4328453;33;20102;-38
2021/08/10 08:11:54;;;;;;;;;;;38.70;29.30;;;;;;4328271;33;19978;-38
2021/08/10 08:14:21;;;;;;;;;;;38.90;29.00;;;;;;4327926;33;20009;-39
2021/08/10 08:16:48;;;;;;;;;;;39.10;28.70;;;;;;4327939;33;19966;-37
2021/08/10 08:19:14;;;;;;;;;;;39.20;28.50;;;;;;4333480;32;19958;-38
2021/08/10 08:21:40;;;;;;;;;;;39.30;28.10;;;;;;4360342;32;19953;-38
2021/08/10 08:24:06;;;;;;;;;;;39.30;28.20;;;;;;4346853;32;19961;-38
2021/08/10 08:26:33;;;;;;;;;;;39.50;28.40;;;;;;4346128;32;19970;-38
2021/08/10 08:28:59;;;;;;;;;;;39.60;28.20;;;;;;4360318;32;19969;-38
2021/08/10 08:31:26;;;;;;;;;;;39.60;28.20;;;;;;4346330;32;20404;-38
2021/08/10 08:33:52;;;;;;;;;;;39.60;28.30;;;;;;4327999;33;20473;-39
2021/08/10 08:36:18;;;;;;;;;;;39.70;28.30;;;;;;4328131;33;19974;-39
2021/08/10 08:38:44;;;;;;;;;;;39.70;28.10;;;;;;4328087;33;19962;-37
2021/08/10 08:41:11;;;;;;;;;;;39.70;28.00;;;;;;4327979;33;20438;-38
2021/08/10 08:43:39;;;;;;;;;;;39.80;28.20;;;;;;4303870;33;19954;-38
2021/08/10 08:46:05;;;;;;;;;;;39.80;28.10;;;;;;4328272;33;20045;-39
2021/08/10 08:48:32;;;;;;;;;;;39.70;28.00;;;;;;4328193;33;20379;-38
2021/08/10 08:51:00;;;;;;;;;;;39.70;28.10;;;;;;4316477;33;19972;-38
2021/08/10 08:53:26;;;;;;;;;;;39.70;28.00;;;;;;4327975;33;20010;-39
2021/08/10 08:55:53;;;;;;;;;;;39.70;27.90;;;;;;4315951;33;20496;-38
2021/08/10 08:58:19;;;;;;;;;;;39.70;28.00;;;;;;4327869;33;20492;-38
2021/08/10 09:00:45;;;;;;;;;;;39.90;28.00;;;;;;4327667;33;19970;-38
2021/08/10 09:03:12;;;;;;;;;;;40.10;27.80;;;;;;4327782;33;19961;-38
2021/08/10 09:05:40;;;;;;;;;;;40.30;27.80;;;;;;4327632;33;20403;-38
2021/08/10 09:08:26;;;;;;;;;;;40.60;27.50;;;;;;4327628;33;19974;-39
2021/08/10 09:10:54;;;;;;;;;;;40.80;27.40;;;;;;4337968;32;20499;-38
2021/08/10 09:13:20;;;;;;;;;;;41.10;27.40;;;;;;4345716;32;19981;-39
2021/08/10 09:15:47;;;;;;;;;;;41.30;27.10;;;;;;4359609;32;19992;-38
2021/08/10 09:18:15;;;;;;;;;;;41.40;27.00;;;;;;4359501;32;19989;-38
2021/08/10 09:20:57;;;;;;;;;;;41.50;27.10;;;;;;4359461;32;20394;-38
2021/08/10 09:23:43;;;;;;;;;;;41.70;27.20;;;;;;4347693;32;20046;-39
2021/08/10 09:26:10;;;;;;;;;;;41.90;27.20;;;;;;4359880;32;20039;-38
2021/08/10 09:28:36;;;;;;;;;;;42.10;27.40;;;;;;4344850;32;20009;-39
2021/08/10 09:31:28;;;;;;;;;;;42.60;26.80;;;;;;4359446;32;20025;-38
2021/08/10 09:34:01;;;;;;;;;;;42.80;26.50;;;;;;4359607;32;19953;-38
2021/08/10 09:36:27;;;;;;;;;;;43.20;26.40;;;;;;4333555;32;19950;-39
2021/08/10 09:38:53;;;;;;;;;;;43.50;25.90;;;;;;4359444;32;20025;-39
2021/08/10 09:41:20;;;;;;;;;;;44.00;25.80;;;;;;4359461;32;19965;-38
2021/08/10 09:43:46;;;;;;;;;;;44.30;25.70;;;;;;4359016;32;19980;-39
2021/08/10 09:46:20;;;;;;;;;;;44.50;25.60;;;;;;4345129;32;19969;-38
2021/08/10 09:48:48;;;;;;;;;;;44.70;25.40;;;;;;4359123;32;19981;-39
2021/08/10 09:51:22;;;;;;;;;;;44.70;25.40;;;;;;4358941;32;19978;-38
2021/08/10 09:53:54;;;;;;;;;;;44.70;25.40;;;;;;4359597;32;19962;-37
2021/08/10 09:56:20;;;;;;;;;;;44.50;25.20;;;;;;4358931;32;20377;-38
2021/08/10 09:58:57;;;;;;;;;;;44.20;25.20;;;;;;4358792;32;19981;-38
2021/08/10 10:01:31;;;;;;;;;;;44.10;25.30;;;;;;4349184;32;19985;-38
2021/08/10 10:04:08;;;;;;;;;;;43.90;25.30;;;;;;4373856;32;20046;-38
2021/08/10 10:06:34;;;;;;;;;;;43.90;25.40;;;;;;4373880;32;19961;-39
2021/08/10 10:09:00;;;;;;;;;;;44.00;25.20;;;;;;4373976;32;20425;-43
2021/08/10 10:11:27;;;;;;;;;;;44.10;25.00;;;;;;4359896;32;20008;-38
2021/08/10 10:13:54;;;;;;;;;;;44.00;24.70;;;;;;4373293;32;19969;-38
2021/08/10 10:16:20;;;;;;;;;;;44.10;24.90;;;;;;4359891;32;20455;-39
2021/08/10 10:18:46;;;;;;;;;;;44.20;24.90;;;;;;4359451;32;20034;-39
2021/08/10 10:21:13;;;;;;;;;;;44.40;24.80;;;;;;4359475;32;20414;-38
2021/08/10 10:23:39;;;;;;;;;;;44.50;24.80;;;;;;4359353;32;20350;-38
2021/08/10 10:26:05;;;;;;;;;;;44.90;24.80;;;;;;4359665;32;20036;-38
2021/08/10 10:28:32;;;;;;;;;;;45.20;24.70;;;;;;4347517;32;19953;-39
2021/08/10 10:30:59;;;;;;;;;;;45.40;24.60;;;;;;4359553;32;20483;-38
2021/08/10 10:33:26;;;;;;;;;;;45.40;24.60;;;;;;4373701;32;20445;-39
2021/08/10 10:35:52;;;;;;;;;;;45.20;24.50;;;;;;4373635;32;19973;-38
2021/08/10 10:38:19;;;;;;;;;;;45.00;24.60;;;;;;4359698;32;19973;-37
2021/08/10 10:40:45;;;;;;;;;;;44.70;24.80;;;;;;4373710;32;19962;-39
2021/08/10 10:43:11;;;;;;;;;;;44.60;24.80;;;;;;4359598;32;20049;-38
2021/08/10 10:45:39;;;;;;;;;;;44.50;24.60;;;;;;4359723;32;20454;-37
2021/08/10 10:48:25;;;;;;;;;;;44.50;25.00;;;;;;4373522;32;20362;-38
2021/08/10 10:51:13;;;;;;;;;;;44.40;23.10;;;;;;4373298;32;19973;-40
2021/08/10 10:53:40;;;;;;;;;;;44.50;23.30;;;;;;4372953;32;20061;-39
2021/08/10 10:56:25;;;;;;;;;;;44.50;23.00;;;;;;4359553;32;20358;-39
2021/08/10 10:58:55;;;;;;;;;;;44.60;22.90;;;;;;4373260;32;20386;-37
2021/08/10 11:01:31;;;;;;;;;;;44.60;22.90;;;;;;4369356;32;19974;-40
2021/08/10 11:04:03;;;;;;;;;;;44.60;22.80;;;;;;4344265;32;20370;-38
2021/08/10 11:06:36;;;;;;;;;;;44.60;22.40;;;;;;4358170;32;20450;-39
2021/08/10 11:09:03;;;;;;;;;;;44.60;22.30;;;;;;4358588;32;19958;-38
2021/08/10 11:11:51;;;;;;;;;;;44.60;22.10;;;;;;4358226;32;20012;-39
2021/08/10 11:14:36;;;;;;;;;;;44.60;22.30;;;;;;4358163;32;19966;-38
2021/08/10 11:17:11;;;;;;;;;;;44.60;22.50;;;;;;4357909;32;19954;-38
2021/08/10 11:19:39;;;;;;;;;;;44.60;22.30;;;;;;4358434;32;19989;-39
2021/08/10 11:22:32;;;;;;;;;;;44.70;22.60;;;;;;4344894;32;19958;-40
2021/08/10 11:25:02;;;;;;;;;;;44.70;22.50;;;;;;4356355;32;19958;-37
2021/08/10 11:27:43;;;;;;;;;;;44.70;22.40;;;;;;4358373;32;19965;-37
2021/08/10 11:30:30;;;;;;;;;;;44.70;22.20;;;;;;4358332;32;20406;-38
2021/08/10 11:32:57;;;;;;;;;;;44.60;22.40;;;;;;4357656;32;19971;-39
2021/08/10 11:35:32;;;;;;;;;;;44.70;22.60;;;;;;4357861;32;20412;-39
2021/08/10 11:38:17;;;;;;;;;;;44.60;22.50;;;;;;4357862;32;19950;-38
2021/08/10 11:40:54;;;;;;;;;;;44.50;22.40;;;;;;4358040;32;20470;-38
2021/08/10 11:43:21;;;;;;;;;;;44.40;22.40;;;;;;4358124;32;19958;-38
2021/08/10 11:45:48;;;;;;;;;;;44.30;22.40;;;;;;4357991;32;19962;-38
2021/08/10 11:48:15;;;;;;;;;;;44.40;22.60;;;;;;4358014;32;19976;-39
2021/08/10 11:50:42;;;;;;;;;;;44.50;22.80;;;;;;4358660;32;20042;-37
2021/08/10 11:53:08;;;;;;;;;;;44.40;22.70;;;;;;4361291;32;20028;-37
2021/08/10 11:55:35;;;;;;;;;;;44.30;22.80;;;;;;4361049;32;19973;-39
2021/08/10 11:58:05;;;;;;;;;;;44.20;22.80;;;;;;4360464;32;19969;-38
2021/08/10 12:00:34;;;;;;;;;;;44.10;22.90;;;;;;4360267;32;20388;-38
2021/08/10 12:03:01;;;;;;;;;;;44.00;23.70;;;;;;4360645;32;20331;-38
2021/08/10 12:05:27;;;;;;;;;;;43.80;23.90;;;;;;4360608;32;20398;-39
2021/08/10 12:07:58;;;;;;;;;;;43.60;24.40;;;;;;4360702;32;20043;-39
2021/08/10 12:10:34;;;;;;;;;;;43.50;24.80;;;;;;4360322;32;19968;-38
2021/08/10 12:13:06;;;;;;;;;;;43.40;25.30;;;;;;4368461;32;19977;-38
2021/08/10 12:15:37;;;;;;;;;;;43.40;24.90;;;;;;4361769;32;20381;-38
2021/08/10 12:18:03;;;;;;;;;;;43.40;23.40;;;;;;4375055;32;20355;-38
2021/08/10 12:20:29;;;;;;;;;;;43.40;23.30;;;;;;4375343;32;19977;-40
2021/08/10 12:23:03;;;;;;;;;;;43.50;23.20;;;;;;4375539;32;20381;-39
2021/08/10 12:25:30;;;;;;;;;;;43.50;23.10;;;;;;4375254;32;19999;-38
2021/08/10 12:28:10;;;;;;;;;;;43.60;23.10;;;;;;4375326;32;20473;-39
2021/08/10 12:30:38;;;;;;;;;;;43.60;23.10;;;;;;4327760;33;19962;-39
2021/08/10 12:33:10;;;;;;;;;;;43.60;23.20;;;;;;4328367;33;21128;-38
2021/08/10 12:35:36;;;;;;;;;;;43.60;23.30;;;;;;4327863;33;19970;-39
2021/08/10 12:38:04;;;;;;;;;;;43.50;23.30;;;;;;4328423;33;20002;-38
2021/08/10 12:40:30;;;;;;;;;;;43.40;23.30;;;;;;4315536;33;20083;-38
2021/08/10 12:42:56;;;;;;;;;;;43.30;23.40;;;;;;4316111;33;19963;-38
2021/08/10 12:45:24;;;;;;;;;;;43.30;23.40;;;;;;4315836;33;19969;-38
2021/08/10 12:47:50;;;;;;;;;;;43.30;23.40;;;;;;4315691;33;19967;-37
2021/08/10 12:50:23;;;;;;;;;;;43.30;23.40;;;;;;4327626;33;19974;-38
2021/08/10 12:52:49;;;;;;;;;;;43.20;23.50;;;;;;4327925;33;20018;-38
2021/08/10 12:55:15;;;;;;;;;;;43.20;23.70;;;;;;4328111;33;19968;-38
2021/08/10 12:57:43;;;;;;;;;;;43.30;23.60;;;;;;4328203;33;19985;-38
2021/08/10 13:00:19;;;;;;;;;;;43.20;23.80;;;;;;4327802;33;20335;-38
2021/08/10 13:02:46;;;;;;;;;;;43.20;23.70;;;;;;4340947;32;19986;-38
2021/08/10 13:05:17;;;;;;;;;;;43.20;23.80;;;;;;4342705;33;19965;-39
2021/08/10 13:08:00;;;;;;;;;;;43.20;23.80;;;;;;4342934;33;19950;-38
2021/08/10 13:10:30;;;;;;;;;;;43.00;23.70;;;;;;4342537;33;19962;-39
2021/08/10 13:12:57;;;;;;;;;;;42.90;23.80;;;;;;4342160;33;19989;-38
2021/08/10 13:15:24;;;;;;;;;;;42.80;23.90;;;;;;4342604;33;19958;-39
2021/08/10 13:17:51;;;;;;;;;;;42.70;24.00;;;;;;4342164;33;19966;-37
2021/08/10 13:20:19;;;;;;;;;;;42.60;23.90;;;;;;4342679;33;19958;-39
2021/08/10 13:23:01;;;;;;;;;;;42.50;23.70;;;;;;4342802;33;19978;-37
2021/08/10 13:25:29;;;;;;;;;;;42.30;23.60;;;;;;4342206;33;19974;-40
2021/08/10 13:28:12;;;;;;;;;;;42.20;23.30;;;;;;4342443;33;19954;-39
2021/08/10 13:30:39;;;;;;;;;;;42.10;23.20;;;;;;4342298;33;20028;-38
2021/08/10 13:33:07;;;;;;;;;;;42.10;23.80;;;;;;4342438;33;19977;-38
2021/08/10 13:35:35;;;;;;;;;;;42.00;23.40;;;;;;4344183;33;19974;-38
2021/08/10 13:38:01;;;;;;;;;;;41.80;23.50;;;;;;4330673;33;20399;-39
2021/08/10 13:40:27;;;;;;;;;;;41.80;23.70;;;;;;4344481;33;19961;-38
2021/08/10 13:42:54;;;;;;;;;;;41.60;23.60;;;;;;4330583;33;19980;-39
2021/08/10 13:45:23;;;;;;;;;;;41.60;23.70;;;;;;4344092;33;19963;-39
2021/08/10 13:47:50;;;;;;;;;;;41.50;23.80;;;;;;4344571;33;19978;-40
2021/08/10 13:50:17;;;;;;;;;;;41.50;23.80;;;;;;4344532;33;20053;-38
2021/08/10 13:52:43;;;;;;;;;;;41.50;23.80;;;;;;4342603;33;20033;-39
2021/08/10 13:55:10;;;;;;;;;;;41.50;24.00;;;;;;4344019;33;20013;-37
2021/08/10 13:57:36;;;;;;;;;;;41.60;24.10;;;;;;4343897;33;19992;-39
2021/08/10 14:00:03;;;;;;;;;;;41.60;24.30;;;;;;4343919;33;19962;-37
2021/08/10 14:02:30;;;;;;;;;;;41.50;24.40;;;;;;4354617;32;19990;-39